Time;durP1;ratioP1;P1;durP2;ratioP2;P2;SDS_P1;SDS_P2;PMS_P1;PMS_P2;Temp;Humidity;BMP_temperature;BMP_pressure;BME280_temperature;BME280_humidity;BME280_pressure;Samples;Min_cycle;Max_cycle;Signal;HPM_P1;HPM_P2
2022/09/08 00:00:31;;;;;;;4.27;2.87;;;20.00;79.90;;;;;;5011495;28;20459;-48
2022/09/08 00:03:01;;;;;;;4.97;3.60;;;20.00;79.80;;;;;;5012913;28;20463;-48
2022/09/08 00:05:32;;;;;;;6.00;5.00;;;20.00;80.20;;;;;;5014554;28;20464;-48
2022/09/08 00:07:59;;;;;;;6.30;4.57;;;19.90;83.70;;;;;;5011718;28;20495;-48
2022/09/08 00:10:28;;;;;;;4.33;4.03;;;19.80;84.30;;;;;;5013117;28;20459;-48
2022/09/08 00:12:55;;;;;;;5.53;3.63;;;19.70;84.50;;;;;;5010560;28;20462;-48
2022/09/08 00:15:23;;;;;;;5.73;4.40;;;19.60;84.80;;;;;;5018743;28;20452;-48
2022/09/08 00:17:49;;;;;;;8.03;5.60;;;19.70;83.90;;;;;;5015147;28;20504;-48
2022/09/08 00:20:16;;;;;;;5.87;5.07;;;19.70;84.10;;;;;;5013057;28;20464;-48
2022/09/08 00:22:43;;;;;;;8.30;5.50;;;19.70;84.10;;;;;;5016043;28;20473;-48
2022/09/08 00:25:09;;;;;;;6.40;5.80;;;19.70;83.90;;;;;;5009873;28;20556;-48
2022/09/08 00:27:36;;;;;;;5.57;4.80;;;19.80;83.70;;;;;;5012282;28;20472;-49
2022/09/08 00:30:04;;;;;;;6.80;5.20;;;19.70;84.70;;;;;;5011601;28;20460;-48
2022/09/08 00:32:30;;;;;;;6.00;5.07;;;19.50;85.30;;;;;;5009800;28;20474;-48
2022/09/08 00:34:58;;;;;;;5.57;4.70;;;19.50;85.20;;;;;;5012293;28;20464;-48
2022/09/08 00:37:26;;;;;;;5.80;4.80;;;19.60;84.50;;;;;;5009338;28;20831;-48
2022/09/08 00:39:52;;;;;;;9.10;4.90;;;19.70;84.50;;;;;;5009995;28;20463;-48
2022/09/08 00:42:19;;;;;;;9.70;5.90;;;19.80;84.90;;;;;;5010276;28;20470;-48
2022/09/08 00:44:51;;;;;;;8.80;4.93;;;19.80;85.00;;;;;;5011707;28;20793;-48
2022/09/08 00:47:38;;;;;;;6.50;4.80;;;19.70;86.40;;;;;;5014830;28;20471;-48
2022/09/08 00:50:14;;;;;;;6.07;4.10;;;19.70;86.00;;;;;;5010667;28;20467;-48
2022/09/08 00:53:00;;;;;;;5.37;4.17;;;19.60;86.30;;;;;;5012444;28;20475;-48
2022/09/08 00:55:31;;;;;;;5.50;4.17;;;19.70;86.20;;;;;;5011495;28;20533;-48
2022/09/08 00:57:58;;;;;;;6.03;3.80;;;19.70;86.30;;;;;;5017314;28;20494;-48
2022/09/08 01:00:25;;;;;;;4.60;4.00;;;19.70;86.00;;;;;;5013847;28;20854;-48
2022/09/08 01:02:53;;;;;;;3.63;2.97;;;19.60;85.70;;;;;;5011754;28;20969;-48
2022/09/08 01:05:36;;;;;;;4.50;2.93;;;19.60;85.90;;;;;;5010229;28;20491;-48
2022/09/08 01:14:11;;;;;;;5.00;4.03;;;19.30;86.90;;;;;;5009986;28;20826;-48
2022/09/08 01:16:42;;;;;;;5.00;3.73;;;19.20;88.00;;;;;;5009780;28;20495;-48
2022/09/08 01:19:31;;;;;;;6.07;4.83;;;19.00;88.70;;;;;;5013119;28;20457;-48
2022/09/08 01:22:20;;;;;;;5.00;4.50;;;19.00;89.30;;;;;;5013834;28;21035;-48
2022/09/08 01:25:06;;;;;;;6.27;4.30;;;19.10;89.00;;;;;;5011061;28;20827;-48
2022/09/08 01:27:35;;;;;;;5.63;4.80;;;19.20;88.80;;;;;;5012946;28;20468;-48
2022/09/08 01:30:06;;;;;;;5.07;3.73;;;19.30;88.70;;;;;;5014900;28;20467;-48
2022/09/08 01:32:37;;;;;;;5.50;4.07;;;19.30;88.50;;;;;;5011190;28;20466;-48
2022/09/08 01:35:06;;;;;;;5.10;3.67;;;19.30;88.80;;;;;;5017994;28;20472;-48
2022/09/08 01:37:32;;;;;;;5.07;4.57;;;19.30;88.70;;;;;;5021883;28;20854;-48
2022/09/08 01:39:59;;;;;;;9.90;4.33;;;19.40;88.40;;;;;;5023101;28;20991;-48
2022/09/08 01:42:26;;;;;;;5.60;4.33;;;19.10;89.50;;;;;;5016671;28;21012;-48
2022/09/08 01:44:52;;;;;;;6.00;4.43;;;19.00;89.80;;;;;;5017151;28;21119;-48
2022/09/08 01:47:19;;;;;;;5.87;4.10;;;19.10;89.80;;;;;;5013992;28;20467;-48
2022/09/08 01:49:46;;;;;;;4.73;4.17;;;19.20;89.70;;;;;;5014073;28;20462;-48
2022/09/08 01:52:13;;;;;;;4.53;4.13;;;19.20;89.50;;;;;;5019083;28;20551;-48
2022/09/08 01:54:40;;;;;;;9.33;5.20;;;19.00;89.80;;;;;;5021970;28;20472;-48
2022/09/08 01:57:06;;;;;;;5.43;4.80;;;18.80;89.80;;;;;;5015985;28;20875;-49
2022/09/08 01:59:33;;;;;;;7.93;5.50;;;18.70;89.80;;;;;;5017811;28;20882;-48
2022/09/08 02:02:00;;;;;;;7.60;6.00;;;18.60;89.80;;;;;;5015062;28;20845;-48
2022/09/08 02:04:27;;;;;;;7.30;5.70;;;18.60;89.80;;;;;;5018244;28;20484;-48
2022/09/08 02:06:53;;;;;;;6.10;5.50;;;18.70;89.80;;;;;;5017813;28;20879;-48
2022/09/08 02:09:20;;;;;;;10.43;6.30;;;18.80;89.80;;;;;;5019973;28;20992;-48
2022/09/08 02:11:48;;;;;;;7.53;6.70;;;18.90;89.80;;;;;;5016588;28;20460;-48
2022/09/08 02:14:15;;;;;;;8.50;6.53;;;19.00;89.80;;;;;;5017048;28;20880;-48
2022/09/08 02:16:42;;;;;;;7.23;6.53;;;19.00;89.80;;;;;;5015948;28;21093;-48
2022/09/08 02:19:09;;;;;;;7.77;6.27;;;19.00;89.80;;;;;;5012262;28;20774;-48
2022/09/08 02:21:36;;;;;;;7.83;6.00;;;19.00;89.80;;;;;;5014924;28;20467;-48
2022/09/08 02:24:04;;;;;;;6.63;5.83;;;19.00;89.80;;;;;;5018327;28;20461;-48
2022/09/08 02:26:31;;;;;;;10.40;6.90;;;19.10;89.80;;;;;;5015697;28;20479;-48
2022/09/08 02:28:58;;;;;;;7.57;6.77;;;19.00;89.80;;;;;;5013435;28;20470;-48
2022/09/08 02:31:27;;;;;;;11.47;7.37;;;19.10;89.80;;;;;;5015544;28;20827;-48
2022/09/08 02:33:54;;;;;;;7.40;6.60;;;19.10;89.80;;;;;;5013702;28;20490;-48
2022/09/08 02:36:21;;;;;;;7.63;5.80;;;19.10;89.80;;;;;;5012609;28;20614;-48
2022/09/08 02:38:55;;;;;;;7.47;5.73;;;19.10;89.80;;;;;;5010939;28;20471;-48
2022/09/08 02:41:23;;;;;;;7.50;6.63;;;19.10;89.80;;;;;;5013793;28;20463;-48
2022/09/08 02:43:50;;;;;;;9.10;5.80;;;19.10;89.80;;;;;;5000720;28;20465;-48
2022/09/08 02:46:18;;;;;;;6.90;6.30;;;19.10;89.80;;;;;;5015343;28;20479;-48
2022/09/08 02:48:45;;;;;;;8.93;6.97;;;19.20;89.80;;;;;;5014822;28;21071;-48
2022/09/08 02:51:14;;;;;;;10.90;7.23;;;19.20;89.80;;;;;;5011392;28;20482;-48
2022/09/08 02:53:41;;;;;;;8.37;7.10;;;19.20;89.80;;;;;;5014912;28;20463;-49
2022/09/08 02:56:08;;;;;;;8.17;6.90;;;19.20;89.80;;;;;;5028744;28;20467;-49
2022/09/08 02:58:36;;;;;;;6.63;6.03;;;19.20;89.80;;;;;;5025152;28;21169;-49
2022/09/08 03:01:06;;;;;;;8.00;6.90;;;19.20;89.80;;;;;;5021344;28;20464;-49
2022/09/08 03:03:33;;;;;;;8.10;7.30;;;19.20;89.80;;;;;;5024719;28;20517;-49
2022/09/08 03:06:01;;;;;;;13.23;7.33;;;19.10;89.80;;;;;;5031284;28;20540;-49
2022/09/08 03:08:30;;;;;;;9.40;7.20;;;19.00;89.80;;;;;;5023781;28;20495;-49
2022/09/08 03:10:57;;;;;;;10.60;7.53;;;19.00;89.80;;;;;;5026540;28;20528;-49
2022/09/08 03:13:24;;;;;;;8.90;7.60;;;19.10;89.80;;;;;;5024709;28;20468;-49
2022/09/08 03:15:51;;;;;;;11.67;8.20;;;19.10;89.80;;;;;;5028373;28;20471;-49
2022/09/08 03:18:18;;;;;;;8.90;7.47;;;19.10;89.80;;;;;;5030989;28;20484;-50
2022/09/08 03:20:45;;;;;;;8.97;6.97;;;19.10;89.80;;;;;;5027504;28;20467;-49
2022/09/08 03:23:19;;;;;;;11.10;7.93;;;19.00;89.80;;;;;;5028916;28;20456;-50
2022/09/08 03:25:47;;;;;;;11.00;8.67;;;19.00;89.80;;;;;;5030081;28;20957;-49
2022/09/08 03:28:19;;;;;;;14.23;9.27;;;19.00;89.80;;;;;;5025674;28;20458;-50
2022/09/08 03:30:46;;;;;;;9.13;8.03;;;19.00;89.80;;;;;;5027594;28;20460;-49
2022/09/08 03:33:13;;;;;;;11.43;8.67;;;19.00;89.80;;;;;;5031911;28;20460;-50
2022/09/08 03:35:39;;;;;;;13.50;8.70;;;19.00;89.80;;;;;;5027057;28;20845;-50
2022/09/08 03:38:06;;;;;;;10.23;8.50;;;19.00;89.80;;;;;;5030205;28;20476;-50
2022/09/08 03:40:34;;;;;;;15.70;9.40;;;18.90;89.80;;;;;;5030017;28;20456;-49
2022/09/08 03:43:01;;;;;;;13.90;9.00;;;18.90;89.80;;;;;;5027680;28;20463;-50
2022/09/08 03:45:28;;;;;;;10.17;8.27;;;18.80;89.80;;;;;;5028557;28;20498;-50
2022/09/08 03:47:55;;;;;;;17.63;9.67;;;18.80;89.80;;;;;;5026097;28;20463;-50
2022/09/08 03:50:23;;;;;;;14.17;8.63;;;18.80;89.80;;;;;;5025933;28;20455;-50
2022/09/08 03:52:50;;;;;;;14.00;7.70;;;18.80;89.80;;;;;;5025889;28;20501;-50
2022/09/08 03:55:18;;;;;;;11.43;8.50;;;18.70;89.80;;;;;;5028200;28;20468;-49
2022/09/08 03:57:45;;;;;;;12.70;7.77;;;18.70;89.80;;;;;;5028121;28;20501;-50
2022/09/08 04:00:12;;;;;;;11.13;7.40;;;18.70;89.80;;;;;;5031459;28;20462;-50
2022/09/08 04:02:39;;;;;;;9.33;6.70;;;18.60;89.80;;;;;;5028468;28;20455;-50
2022/09/08 04:05:06;;;;;;;10.30;6.10;;;18.60;89.80;;;;;;5028038;28;20487;-50
2022/09/08 04:07:34;;;;;;;8.63;6.03;;;18.60;89.80;;;;;;5027008;28;20563;-50
2022/09/08 04:10:01;;;;;;;8.10;6.40;;;18.60;89.80;;;;;;5027230;28;20923;-50
2022/09/08 04:12:39;;;;;;;8.17;5.90;;;18.50;89.80;;;;;;5031634;28;20459;-50
2022/09/08 04:15:06;;;;;;;6.13;5.53;;;18.50;89.80;;;;;;5015507;28;20459;-50
2022/09/08 04:17:33;;;;;;;7.47;6.43;;;18.50;89.80;;;;;;5035794;28;20534;-50
2022/09/08 04:20:00;;;;;;;5.83;5.30;;;18.50;89.80;;;;;;5031385;28;20730;-50
2022/09/08 04:22:27;;;;;;;10.63;6.10;;;18.50;89.80;;;;;;5028755;28;20481;-50
2022/09/08 04:24:54;;;;;;;7.27;5.50;;;18.40;89.80;;;;;;5028017;28;20498;-51
2022/09/08 04:27:22;;;;;;;9.40;6.17;;;18.20;89.80;;;;;;5027349;28;20977;-50
2022/09/08 04:29:50;;;;;;;7.30;5.00;;;18.30;89.80;;;;;;5024878;28;20459;-50
2022/09/08 04:32:18;;;;;;;7.33;5.50;;;18.30;89.80;;;;;;5027691;28;21036;-50
2022/09/08 04:34:49;;;;;;;7.20;5.37;;;18.30;89.80;;;;;;5027172;28;20463;-50
2022/09/08 04:37:17;;;;;;;9.03;5.20;;;18.30;89.80;;;;;;5029841;28;20480;-50
2022/09/08 04:39:43;;;;;;;8.30;5.27;;;18.30;89.80;;;;;;5026245;28;20468;-50
2022/09/08 04:42:10;;;;;;;5.87;5.20;;;18.30;89.80;;;;;;5028285;28;20462;-50
2022/09/08 04:44:37;;;;;;;8.10;5.27;;;18.20;89.80;;;;;;5025916;28;20456;-49
2022/09/08 04:47:04;;;;;;;5.63;4.73;;;18.20;89.80;;;;;;5023272;28;20468;-50
2022/09/08 04:49:30;;;;;;;5.50;4.87;;;18.10;89.80;;;;;;5027087;28;20460;-50
2022/09/08 04:51:57;;;;;;;9.87;5.33;;;18.10;89.80;;;;;;5025254;28;20464;-50
2022/09/08 04:54:23;;;;;;;8.30;5.43;;;18.10;89.80;;;;;;5026819;28;20484;-50
2022/09/08 04:56:50;;;;;;;5.43;4.80;;;18.10;89.80;;;;;;5029566;28;20474;-50
2022/09/08 04:59:17;;;;;;;6.63;5.10;;;18.10;89.80;;;;;;5031077;28;20553;-50
2022/09/08 05:01:44;;;;;;;6.87;5.83;;;18.10;89.80;;;;;;5025171;28;20468;-50
2022/09/08 05:04:11;;;;;;;6.43;4.83;;;18.00;89.80;;;;;;5025976;28;20468;-49
2022/09/08 05:06:38;;;;;;;7.03;4.63;;;18.00;89.80;;;;;;5025544;28;20945;-50
2022/09/08 05:09:05;;;;;;;8.80;4.87;;;18.10;89.80;;;;;;5031505;28;20478;-50
2022/09/08 05:11:33;;;;;;;4.80;4.30;;;18.10;89.80;;;;;;5038789;28;20466;-50
2022/09/08 05:14:00;;;;;;;6.10;4.50;;;18.00;89.80;;;;;;5034397;28;20464;-50
2022/09/08 05:16:28;;;;;;;8.27;4.70;;;17.90;89.80;;;;;;5030488;28;20494;-49
2022/09/08 05:19:01;;;;;;;7.37;4.93;;;17.90;89.80;;;;;;5028459;28;20545;-50
2022/09/08 05:21:29;;;;;;;7.60;5.67;;;17.90;89.80;;;;;;5030018;28;20774;-49
2022/09/08 05:24:00;;;;;;;7.07;5.90;;;17.90;89.80;;;;;;5031902;28;20463;-50
2022/09/08 05:26:26;;;;;;;6.13;5.50;;;17.90;89.80;;;;;;5030936;28;20464;-50
2022/09/08 05:28:54;;;;;;;7.53;5.90;;;18.00;89.80;;;;;;5027890;28;20483;-50
2022/09/08 05:31:23;;;;;;;7.27;5.80;;;18.00;89.80;;;;;;5035514;28;20894;-49
2022/09/08 05:33:50;;;;;;;7.03;6.10;;;18.10;89.80;;;;;;5028204;28;20457;-50
2022/09/08 05:36:23;;;;;;;6.70;6.00;;;18.10;89.80;;;;;;5033967;28;20459;-50
2022/09/08 05:38:51;;;;;;;10.10;6.53;;;18.10;89.80;;;;;;5030547;28;20492;-50
2022/09/08 05:41:18;;;;;;;6.97;6.00;;;18.10;89.80;;;;;;5039682;28;20521;-50
2022/09/08 05:43:45;;;;;;;7.30;6.50;;;18.10;89.80;;;;;;5032611;28;20459;-50
2022/09/08 05:46:12;;;;;;;8.70;5.73;;;18.10;89.80;;;;;;5032634;28;20440;-50
2022/09/08 05:48:44;;;;;;;9.47;6.87;;;18.00;89.80;;;;;;5030774;28;20502;-50
2022/09/08 05:51:17;;;;;;;6.10;5.50;;;18.00;89.80;;;;;;5034724;28;20475;-49
2022/09/08 05:53:44;;;;;;;6.33;4.87;;;18.00;89.80;;;;;;5032697;28;20467;-49
2022/09/08 05:56:11;;;;;;;7.20;5.70;;;18.00;89.80;;;;;;5034358;28;20459;-50
2022/09/08 05:58:38;;;;;;;10.00;6.30;;;18.10;89.80;;;;;;5031436;28;20491;-50
2022/09/08 06:01:08;;;;;;;10.60;6.40;;;18.10;89.80;;;;;;5034488;28;20444;-50
2022/09/08 06:03:36;;;;;;;10.27;6.90;;;18.10;89.80;;;;;;5034553;28;20486;-49
2022/09/08 06:06:06;;;;;;;9.17;6.77;;;18.00;89.80;;;;;;5031093;28;20543;-49
2022/09/08 06:08:34;;;;;;;10.87;6.33;;;18.10;89.80;;;;;;5034085;28;20464;-50
2022/09/08 06:11:01;;;;;;;8.70;6.43;;;18.10;89.80;;;;;;5036435;28;20507;-50
2022/09/08 06:13:30;;;;;;;11.13;7.13;;;18.00;89.80;;;;;;5038120;28;20463;-49
2022/09/08 06:16:09;;;;;;;7.70;6.10;;;18.00;89.80;;;;;;5029265;28;20448;-50
2022/09/08 06:18:38;;;;;;;9.77;7.33;;;17.90;89.80;;;;;;5029246;28;20508;-49
2022/09/08 06:21:17;;;;;;;7.60;6.40;;;17.90;89.80;;;;;;5024941;28;20554;-50
2022/09/08 06:23:48;;;;;;;11.27;5.93;;;18.00;89.80;;;;;;5030006;28;20439;-50
2022/09/08 06:26:15;;;;;;;6.27;5.67;;;18.10;89.80;;;;;;5027706;28;20483;-50
2022/09/08 06:28:52;;;;;;;8.10;6.23;;;18.10;89.80;;;;;;5031716;28;20469;-50
2022/09/08 06:31:26;;;;;;;6.77;5.00;;;18.00;89.80;;;;;;5027732;28;20456;-50
2022/09/08 06:33:54;;;;;;;8.33;7.07;;;18.00;89.80;;;;;;5030564;28;20479;-49
2022/09/08 06:36:25;;;;;;;8.47;6.20;;;18.00;89.80;;;;;;5031281;28;20516;-50
2022/09/08 06:38:59;;;;;;;8.13;7.33;;;18.10;89.80;;;;;;5031028;28;20486;-49
2022/09/08 06:41:30;;;;;;;9.57;6.73;;;18.10;89.80;;;;;;5031800;28;20474;-50
2022/09/08 06:44:16;;;;;;;11.03;7.63;;;18.10;89.80;;;;;;5030387;28;20452;-49
2022/09/08 06:46:46;;;;;;;11.97;7.33;;;18.00;89.80;;;;;;5032060;28;20467;-50
2022/09/08 06:49:13;;;;;;;9.10;7.47;;;18.10;89.80;;;;;;5029334;28;20453;-50
2022/09/08 06:52:18;;;;;;;12.63;8.63;;;18.10;89.80;;;;;;5032835;28;20468;-50
2022/09/08 06:55:04;;;;;;;14.50;13.00;;;18.10;89.80;;;;;;5009078;28;20482;-50
2022/09/08 06:57:55;;;;;;;11.40;8.30;;;18.10;89.80;;;;;;5027275;28;20495;-50
2022/09/08 07:00:40;;;;;;;11.23;7.40;;;18.20;89.80;;;;;;5024075;28;20452;-49
2022/09/08 07:03:11;;;;;;;14.70;7.30;;;18.20;89.80;;;;;;5018766;28;20960;-48
2022/09/08 07:05:56;;;;;;;7.47;6.70;;;18.20;89.80;;;;;;5017953;28;20460;-48
2022/09/08 07:08:47;;;;;;;7.70;6.97;;;18.30;89.80;;;;;;5016206;28;20880;-48
2022/09/08 07:11:20;;;;;;;12.43;7.43;;;18.20;89.80;;;;;;5015689;28;20587;-48
2022/09/08 07:14:10;;;;;;;7.90;6.50;;;18.30;89.80;;;;;;5021460;28;20908;-48
2022/09/08 07:16:55;;;;;;;8.13;6.93;;;18.30;89.80;;;;;;5022395;28;21039;-48
2022/09/08 07:19:49;;;;;;;7.23;5.90;;;18.30;89.80;;;;;;5014992;28;20487;-48
2022/09/08 07:22:19;;;;;;;5.30;4.80;;;18.30;89.80;;;;;;5017427;28;20472;-48
2022/09/08 07:24:50;;;;;;;8.00;5.57;;;18.40;89.80;;;;;;5016565;28;20490;-48
2022/09/08 07:27:20;;;;;;;5.63;4.83;;;18.40;89.80;;;;;;5018873;28;20470;-49
2022/09/08 07:29:50;;;;;;;4.93;4.00;;;18.40;89.80;;;;;;5023323;28;20521;-49
2022/09/08 07:32:33;;;;;;;3.80;3.50;;;18.50;89.80;;;;;;5016507;28;21064;-49
2022/09/08 07:35:05;;;;;;;3.00;2.70;;;18.60;89.80;;;;;;5020391;28;20451;-50
2022/09/08 07:37:53;;;;;;;4.70;3.10;;;18.60;89.80;;;;;;5031970;28;20869;-49
2022/09/08 07:40:36;;;;;;;3.83;3.27;;;18.60;89.80;;;;;;5029390;28;20451;-49
2022/09/08 07:43:09;;;;;;;5.03;2.60;;;18.60;89.80;;;;;;5026979;28;21018;-49
2022/09/08 07:46:08;;;;;;;3.00;2.70;;;18.60;89.80;;;;;;5021516;28;20495;-49
2022/09/08 07:48:35;;;;;;;3.83;2.73;;;18.60;89.80;;;;;;5009103;28;20463;-49
2022/09/08 07:51:12;;;;;;;3.43;3.13;;;18.60;89.80;;;;;;5026527;28;20529;-49
2022/09/08 07:54:10;;;;;;;3.77;3.20;;;18.70;89.80;;;;;;5029937;28;20487;-49
2022/09/08 07:56:46;;;;;;;2.70;2.33;;;18.70;89.80;;;;;;5023567;28;20819;-49
2022/09/08 07:59:47;;;;;;;2.90;2.60;;;18.70;89.80;;;;;;5031105;28;20482;-49
2022/09/08 08:02:35;;;;;;;3.00;2.10;;;18.70;89.80;;;;;;5029436;28;20482;-49
2022/09/08 08:05:17;;;;;;;2.70;2.50;;;18.80;89.80;;;;;;5032106;28;20698;-49
2022/09/08 08:08:28;;;;;;;2.60;2.30;;;18.80;89.80;;;;;;5032303;28;20525;-49
2022/09/08 08:11:22;;;;;;;3.20;2.17;;;18.70;89.80;;;;;;5032533;28;20478;-49
2022/09/08 08:14:33;;;;;;;3.13;2.40;;;18.70;89.80;;;;;;5026442;28;20454;-49
2022/09/08 08:17:17;;;;;;;2.97;2.67;;;18.70;89.80;;;;;;5029933;28;21076;-49
2022/09/08 08:20:03;;;;;;;5.00;2.43;;;18.70;89.80;;;;;;5028373;28;20484;-49
2022/09/08 08:22:53;;;;;;;1.93;1.83;;;18.80;89.80;;;;;;5029235;28;20497;-49
2022/09/08 08:25:32;;;;;;;2.30;1.93;;;18.90;89.80;;;;;;5028823;28;20448;-49
2022/09/08 08:28:18;;;;;;;2.30;1.80;;;19.00;89.80;;;;;;5030684;28;20463;-49
2022/09/08 08:30:54;;;;;;;2.50;1.47;;;19.00;89.80;;;;;;5028608;28;20455;-50
2022/09/08 08:33:25;;;;;;;1.70;1.60;;;19.00;89.80;;;;;;5027072;28;20522;-49
2022/09/08 08:35:56;;;;;;;3.40;1.90;;;19.10;89.80;;;;;;5031594;28;20483;-49
2022/09/08 08:38:47;;;;;;;2.53;1.63;;;19.10;89.80;;;;;;5012676;28;20488;-49
2022/09/08 08:41:33;;;;;;;1.50;1.40;;;19.20;89.80;;;;;;5025212;28;20529;-49
2022/09/08 08:44:42;;;;;;;1.70;1.60;;;19.30;89.80;;;;;;5029789;28;20476;-49
2022/09/08 08:47:49;;;;;;;1.60;1.43;;;19.40;89.60;;;;;;5027471;28;20984;-49
2022/09/08 08:50:23;;;;;;;1.60;1.50;;;19.50;89.10;;;;;;5033734;28;20506;-49
2022/09/08 08:53:00;;;;;;;2.67;1.87;;;19.50;88.60;;;;;;5033098;28;20459;-49
2022/09/08 08:55:36;;;;;;;1.43;1.33;;;19.50;88.70;;;;;;5033809;28;20463;-49
2022/09/08 08:58:39;;;;;;;1.93;1.63;;;19.50;88.90;;;;;;5032428;28;20515;-49
2022/09/08 09:01:13;;;;;;;1.40;1.30;;;19.70;85.80;;;;;;5034485;28;20447;-49
2022/09/08 09:03:53;;;;;;;2.17;1.60;;;19.80;84.30;;;;;;5027811;28;20486;-49
2022/09/08 09:06:44;;;;;;;2.07;1.40;;;19.80;85.50;;;;;;5036862;28;20470;-48
2022/09/08 09:09:16;;;;;;;2.50;1.27;;;19.90;85.40;;;;;;5032815;28;20503;-48
2022/09/08 09:12:41;;;;;;;1.40;1.30;;;20.00;85.30;;;;;;5027326;28;20463;-48
2022/09/08 09:15:17;;;;;;;1.50;1.40;;;20.00;85.30;;;;;;4930744;28;20443;-49
2022/09/08 09:18:27;;;;;;;2.27;1.23;;;20.10;82.20;;;;;;4958287;28;20636;-48
2022/09/08 09:20:57;;;;;;;1.57;1.37;;;20.20;82.80;;;;;;5024985;28;20467;-48
2022/09/08 09:23:48;;;;;;;1.70;1.60;;;20.30;82.30;;;;;;5024573;28;20459;-49
2022/09/08 09:26:20;;;;;;;1.57;1.30;;;20.40;82.30;;;;;;5030874;28;20514;-49
2022/09/08 09:29:02;;;;;;;1.37;1.00;;;20.40;79.70;;;;;;5035747;28;20455;-56
2022/09/08 09:31:35;;;;;;;1.43;1.07;;;20.40;78.30;;;;;;5031008;28;21002;-49
2022/09/08 09:34:20;;;;;;;1.30;1.10;;;20.50;77.90;;;;;;5031361;28;20463;-49
2022/09/08 09:37:23;;;;;;;2.07;1.03;;;20.50;79.10;;;;;;5030669;28;20474;-50
2022/09/08 09:40:25;;;;;;;1.30;1.13;;;20.50;79.20;;;;;;5030149;28;20483;-49
2022/09/08 09:43:14;;;;;;;1.27;1.17;;;20.60;79.90;;;;;;5029434;28;20486;-49
2022/09/08 09:46:02;;;;;;;1.03;0.90;;;20.70;77.60;;;;;;5027885;28;20953;-49
2022/09/08 09:48:44;;;;;;;2.43;1.13;;;20.80;75.90;;;;;;5030006;28;20530;-49
2022/09/08 09:51:42;;;;;;;1.40;1.03;;;20.90;75.10;;;;;;5025325;28;20463;-48
2022/09/08 09:54:22;;;;;;;1.87;0.93;;;20.90;74.40;;;;;;5026663;28;20464;-49
2022/09/08 09:57:04;;;;;;;2.60;0.60;;;21.00;74.60;;;;;;5036415;28;20910;-49
2022/09/08 10:00:27;;;;;;;1.77;0.80;;;21.10;72.90;;;;;;5028552;28;20495;-50
2022/09/08 10:03:32;;;;;;;2.20;0.50;;;21.20;73.20;;;;;;5028458;28;20490;-50
2022/09/08 10:06:32;;;;;;;0.63;0.63;;;21.20;70.70;;;;;;5034018;28;20469;-49
2022/09/08 10:09:20;;;;;;;0.73;0.60;;;21.10;72.60;;;;;;5026970;28;20526;-49
2022/09/08 10:12:12;;;;;;;1.23;0.77;;;21.10;72.70;;;;;;5027937;28;20467;-49
2022/09/08 10:15:13;;;;;;;0.73;0.70;;;21.10;70.70;;;;;;5025102;28;20510;-49
2022/09/08 10:17:41;;;;;;;1.40;0.47;;;21.00;71.80;;;;;;5030589;28;20766;-49
2022/09/08 10:20:40;;;;;;;1.37;0.60;;;21.00;71.50;;;;;;5029917;28;20487;-49
2022/09/08 10:23:29;;;;;;;1.10;0.60;;;21.00;70.80;;;;;;5022522;28;20439;-49
2022/09/08 10:26:18;;;;;;;1.07;0.60;;;21.00;70.00;;;;;;5031946;28;20455;-48
2022/09/08 10:29:06;;;;;;;0.80;0.50;;;21.00;71.00;;;;;;5029448;28;20467;-48
2022/09/08 10:32:12;;;;;;;2.10;1.10;;;21.00;71.70;;;;;;5036679;28;20443;-48
2022/09/08 10:34:41;;;;;;;1.13;0.60;;;20.90;71.60;;;;;;5029144;28;20460;-48
2022/09/08 10:37:44;;;;;;;0.63;0.50;;;20.90;71.40;;;;;;5030568;28;20467;-49
2022/09/08 10:40:45;;;;;;;1.33;0.60;;;20.90;70.00;;;;;;5033131;28;20495;-49
2022/09/08 10:43:37;;;;;;;2.97;0.50;;;21.00;68.80;;;;;;5034068;28;20511;-48
2022/09/08 10:46:25;;;;;;;1.40;0.57;;;20.90;69.40;;;;;;5025622;28;20510;-49
2022/09/08 10:49:01;;;;;;;0.57;0.40;;;20.90;68.80;;;;;;5026438;28;20464;-48
2022/09/08 10:51:37;;;;;;;2.03;0.60;;;21.00;69.10;;;;;;5029793;28;20481;-49
2022/09/08 10:54:49;;;;;;;1.00;0.70;;;21.00;68.30;;;;;;5030812;28;20517;-48
2022/09/08 10:57:42;;;;;;;0.70;0.53;;;21.10;68.20;;;;;;5027283;28;20855;-49
2022/09/08 11:00:18;;;;;;;0.90;0.60;;;21.20;67.70;;;;;;5016157;28;20488;-49
2022/09/08 11:03:11;;;;;;;1.57;0.60;;;21.30;68.80;;;;;;5026917;28;21031;-49
2022/09/08 11:05:53;;;;;;;3.83;0.70;;;21.80;65.80;;;;;;5024387;28;20591;-49
2022/09/08 11:08:37;;;;;;;0.93;0.60;;;22.00;65.10;;;;;;5029179;28;20525;-48
2022/09/08 11:11:24;;;;;;;2.90;0.70;;;21.90;64.80;;;;;;5027738;28;20464;-49
2022/09/08 11:14:27;;;;;;;2.20;0.70;;;21.80;65.40;;;;;;5027496;28;27973;-48
2022/09/08 11:17:07;;;;;;;4.00;2.00;;;21.60;66.60;;;;;;5030538;28;20464;-49
2022/09/08 11:19:48;;;;;;;1.90;0.60;;;21.50;68.40;;;;;;5031412;28;20479;-48
2022/09/08 11:22:33;;;;;;;1.00;0.70;;;21.40;68.10;;;;;;5028021;28;20455;-48
2022/09/08 11:25:14;;;;;;;1.37;0.70;;;21.30;68.60;;;;;;5026506;28;20487;-49
2022/09/08 11:27:48;;;;;;;1.13;0.80;;;21.30;68.10;;;;;;5032231;28;20484;-49
2022/09/08 11:30:23;;;;;;;1.20;0.70;;;21.20;68.90;;;;;;5028114;28;20970;-49
2022/09/08 11:33:18;;;;;;;1.47;1.10;;;21.10;71.60;;;;;;5026934;28;20458;-48
2022/09/08 11:36:10;;;;;;;1.57;1.00;;;21.10;70.20;;;;;;5034521;28;20653;-48
2022/09/08 11:39:06;;;;;;;2.30;0.60;;;21.00;70.50;;;;;;5029635;28;20487;-48
2022/09/08 11:41:59;;;;;;;4.27;1.10;;;20.90;71.20;;;;;;5029803;28;20452;-48
2022/09/08 11:44:47;;;;;;;1.63;1.07;;;20.90;70.20;;;;;;5028710;28;20506;-48
2022/09/08 11:47:44;;;;;;;1.60;0.90;;;21.00;69.60;;;;;;5028745;28;21234;-48
2022/09/08 11:50:33;;;;;;;6.37;0.70;;;21.00;69.40;;;;;;5024801;28;21015;-48
2022/09/08 11:53:35;;;;;;;1.00;0.60;;;21.00;68.60;;;;;;5028260;28;21111;-49
2022/09/08 11:56:31;;;;;;;1.13;0.70;;;21.10;69.40;;;;;;5028880;28;20475;-48
2022/09/08 11:59:21;;;;;;;2.83;0.90;;;21.10;69.10;;;;;;5029662;28;20497;-48
2022/09/08 12:02:25;;;;;;;1.53;1.00;;;21.10;68.50;;;;;;5024867;28;20543;-48
2022/09/08 12:05:01;;;;;;;1.10;0.70;;;21.20;68.30;;;;;;5035144;28;20455;-49
2022/09/08 12:08:26;;;;;;;0.83;0.67;;;21.20;68.30;;;;;;5028911;28;20497;-49
2022/09/08 12:10:58;;;;;;;2.27;0.80;;;21.20;68.40;;;;;;5028832;28;20452;-49
2022/09/08 12:13:51;;;;;;;2.57;0.67;;;21.20;68.40;;;;;;5035513;28;20816;-49
2022/09/08 12:16:46;;;;;;;1.37;0.50;;;21.20;66.70;;;;;;5035182;28;20463;-49
2022/09/08 12:19:27;;;;;;;2.50;0.97;;;21.30;65.70;;;;;;5029528;28;20483;-49
2022/09/08 12:22:02;;;;;;;1.20;0.70;;;21.30;66.90;;;;;;5029696;28;20489;-48
2022/09/08 12:24:47;;;;;;;1.43;0.80;;;21.30;65.20;;;;;;5033994;28;20455;-48
2022/09/08 12:28:10;;;;;;;2.73;0.73;;;21.40;67.00;;;;;;5028416;28;20609;-49
2022/09/08 12:30:51;;;;;;;1.00;0.70;;;21.40;64.90;;;;;;5025061;28;20464;-49
2022/09/08 12:33:44;;;;;;;0.73;0.57;;;21.50;63.60;;;;;;5023303;28;20470;-49
2022/09/08 12:36:32;;;;;;;1.97;0.80;;;21.50;62.90;;;;;;5025094;28;20515;-49
2022/09/08 12:39:08;;;;;;;1.30;0.43;;;21.50;63.50;;;;;;5030702;28;20494;-49
2022/09/08 12:41:56;;;;;;;4.60;0.87;;;21.50;64.30;;;;;;5032768;28;20467;-49
2022/09/08 12:44:44;;;;;;;2.53;0.70;;;21.60;64.20;;;;;;5027725;28;20467;-49
2022/09/08 12:47:24;;;;;;;5.70;1.10;;;21.50;64.20;;;;;;5023197;28;21003;-49
2022/09/08 12:50:14;;;;;;;2.23;1.00;;;21.60;63.50;;;;;;5021798;28;20567;-48
2022/09/08 12:52:49;;;;;;;7.20;0.60;;;21.70;63.50;;;;;;5022333;28;20456;-48
2022/09/08 12:55:20;;;;;;;2.63;0.60;;;21.70;62.90;;;;;;5019905;28;20915;-50
2022/09/08 12:57:54;;;;;;;2.60;0.70;;;21.70;61.90;;;;;;5025653;28;21083;-48
2022/09/08 13:00:27;;;;;;;2.00;0.67;;;21.80;61.80;;;;;;5024593;28;20496;-49
2022/09/08 13:03:31;;;;;;;2.20;1.20;;;21.90;62.10;;;;;;5021254;28;20605;-48
2022/09/08 13:05:58;;;;;;;1.67;0.70;;;21.90;63.30;;;;;;5023328;28;20463;-49
2022/09/08 13:08:27;;;;;;;4.50;0.80;;;21.90;61.20;;;;;;5020929;28;20470;-48
2022/09/08 13:11:07;;;;;;;2.83;0.60;;;21.90;62.80;;;;;;5025996;28;20767;-49
2022/09/08 13:13:42;;;;;;;0.67;0.60;;;21.90;62.20;;;;;;5028979;28;20482;-48
2022/09/08 13:16:27;;;;;;;10.43;1.03;;;22.00;61.00;;;;;;5023207;28;20462;-49
2022/09/08 13:19:12;;;;;;;1.43;0.80;;;22.00;61.80;;;;;;5020073;28;20463;-49
2022/09/08 13:22:18;;;;;;;0.93;0.67;;;21.90;61.40;;;;;;5024150;28;20537;-48
2022/09/08 13:24:53;;;;;;;1.60;0.70;;;22.00;61.70;;;;;;5000997;28;20463;-48
2022/09/08 13:27:26;;;;;;;4.60;0.83;;;22.00;62.60;;;;;;5022916;28;20545;-49
2022/09/08 13:30:08;;;;;;;2.80;1.10;;;22.00;62.10;;;;;;5029841;28;20455;-48
2022/09/08 13:33:00;;;;;;;3.03;1.60;;;22.00;61.50;;;;;;5028959;28;20451;-49
2022/09/08 13:35:51;;;;;;;3.77;0.90;;;22.00;62.70;;;;;;5029750;28;20554;-49
2022/09/08 13:38:39;;;;;;;2.20;0.70;;;22.00;63.20;;;;;;5027238;28;20468;-48
2022/09/08 13:41:29;;;;;;;1.00;0.67;;;22.00;64.00;;;;;;5034790;28;20490;-49
2022/09/08 13:44:25;;;;;;;3.97;1.10;;;22.10;62.20;;;;;;5028977;28;20523;-48